Time;durP1;ratioP1;P1;durP2;ratioP2;P2;SDS_P1;SDS_P2;PMS_P1;PMS_P2;Temp;Humidity;BMP_temperature;BMP_pressure;BME280_temperature;BME280_humidity;BME280_pressure;Samples;Min_cycle;Max_cycle;Signal;HPM_P1;HPM_P2
2021/12/09 00:01:09;;;;;;;60.65;22.00;;;;;;;-3.58;79.89;97554.78;5030406;28;20047;-67
2021/12/09 00:03:39;;;;;;;57.58;22.10;;;;;;;-3.56;80.26;97554.56;5031106;28;20112;-66
2021/12/09 00:06:06;;;;;;;58.17;21.98;;;;;;;-3.54;79.86;97557.84;5031468;28;20484;-66
2021/12/09 00:08:32;;;;;;;59.30;20.85;;;;;;;-3.52;79.85;97543.16;5030897;28;20026;-67
2021/12/09 00:11:00;;;;;;;74.15;22.73;;;;;;;-3.49;79.91;97544.56;5028925;28;20035;-66
2021/12/09 00:13:27;;;;;;;55.30;20.52;;;;;;;-3.49;79.83;97547.25;5030792;28;20033;-67
2021/12/09 00:15:52;;;;;;;54.03;20.08;;;;;;;-3.49;79.91;97544.56;5030742;28;20091;-66
2021/12/09 00:18:18;;;;;;;56.40;20.63;;;;;;;-3.48;79.65;97540.84;5030487;28;20470;-66
2021/12/09 00:20:44;;;;;;;51.40;20.27;;;;;;;-3.47;79.84;97545.16;5030558;28;20055;-66
2021/12/09 00:23:10;;;;;;;54.65;19.67;;;;;;;-3.45;80.03;97543.88;5050132;28;20052;-66
2021/12/09 00:25:36;;;;;;;59.20;21.27;;;;;;;-3.47;79.85;97553.22;5050667;28;20436;-67
2021/12/09 00:28:02;;;;;;;53.75;20.08;;;;;;;-3.45;79.71;97553.78;5050418;28;20078;-66
2021/12/09 00:30:31;;;;;;;58.17;21.88;;;;;;;-3.45;79.78;97545.72;5050413;28;20044;-66
2021/12/09 00:33:02;;;;;;;53.22;20.23;;;;;;;-3.45;79.88;97537.69;5049769;28;20508;-66
2021/12/09 00:35:33;;;;;;;50.38;19.85;;;;;;;-3.48;79.88;97541.66;5050552;28;20357;-67
2021/12/09 00:38:08;;;;;;;51.42;19.63;;;;;;;-3.52;79.99;97540.47;5049177;28;20075;-66
2021/12/09 00:40:34;;;;;;;50.70;18.40;;;;;;;-3.53;80.03;97540.72;5050031;28;20033;-66
2021/12/09 00:43:00;;;;;;;47.88;18.40;;;;;;;-3.54;79.82;97528.34;5049497;28;20029;-66
2021/12/09 00:45:26;;;;;;;51.72;21.20;;;;;;;-3.54;79.83;97520.31;5049628;28;20145;-66
2021/12/09 00:47:52;;;;;;;48.47;20.05;;;;;;;-3.53;79.62;97525.44;5053813;28;20017;-67
2021/12/09 00:50:19;;;;;;;49.00;19.85;;;;;;;-3.52;79.86;97521.72;5050941;28;20026;-66
2021/12/09 00:52:46;;;;;;;50.65;20.23;;;;;;;-3.47;79.98;97510.31;5041066;28;20009;-66
2021/12/09 00:55:12;;;;;;;49.38;19.90;;;;;;;-3.45;79.66;97513.56;5044155;28;20529;-66
2021/12/09 00:57:39;;;;;;;47.17;18.63;;;;;;;-3.46;79.68;97512.75;5048887;28;20025;-66
2021/12/09 01:00:12;;;;;;;45.53;18.75;;;;;;;-3.46;79.77;97511.94;5037833;28;20430;-66
2021/12/09 01:02:37;;;;;;;47.17;19.35;;;;;;;-3.47;80.13;97507.63;5042595;28;21642;-66
2021/12/09 01:05:05;;;;;;;52.53;20.17;;;;;;;-3.49;80.02;97494.44;5048168;28;20053;-66
2021/12/09 01:07:32;;;;;;;46.50;19.23;;;;;;;-3.48;79.94;97492.59;5047618;28;20078;-65
2021/12/09 01:09:57;;;;;;;46.90;19.73;;;;;;;-3.48;80.09;97492.59;5048580;28;20032;-66
2021/12/09 01:12:23;;;;;;;43.17;18.00;;;;;;;-3.44;79.76;97488.38;5048784;28;20109;-65
2021/12/09 01:14:48;;;;;;;37.67;15.02;;;;;;;-3.40;79.97;97483.41;5050090;28;20029;-66
2021/12/09 01:17:14;;;;;;;45.30;18.15;;;;;;;-3.38;79.61;97484.78;5049111;28;20032;-65
2021/12/09 01:19:40;;;;;;;43.33;18.33;;;;;;;-3.34;79.84;97485.97;5050298;28;20502;-66
2021/12/09 01:22:06;;;;;;;45.28;17.77;;;;;;;-3.34;79.69;97494.00;5048538;28;20063;-66
2021/12/09 01:24:31;;;;;;;45.78;17.63;;;;;;;-3.33;80.06;97490.28;5050141;28;20478;-65
2021/12/09 01:26:58;;;;;;;41.72;17.25;;;;;;;-3.31;79.88;97493.56;5048819;28;20029;-66
2021/12/09 01:29:33;;;;;;;46.60;18.98;;;;;;;-3.29;79.90;97496.81;5045429;28;20100;-65
2021/12/09 01:32:03;;;;;;;42.30;17.35;;;;;;;-3.27;79.74;97485.88;5045464;28;20032;-66
2021/12/09 01:34:29;;;;;;;45.75;19.73;;;;;;;-3.26;79.66;97487.50;5047498;28;20401;-65
2021/12/09 01:36:55;;;;;;;46.33;19.90;;;;;;;-3.27;79.76;97490.41;5046675;28;20135;-65
2021/12/09 01:39:21;;;;;;;44.47;18.80;;;;;;;-3.29;79.42;97498.69;5043358;28;20182;-66
2021/12/09 01:41:47;;;;;;;41.72;16.92;;;;;;;-3.28;79.77;97500.34;5049223;28;20025;-65
2021/12/09 01:44:13;;;;;;;45.28;18.13;;;;;;;-3.30;79.88;97489.03;5041352;28;20199;-65
2021/12/09 01:46:38;;;;;;;47.38;19.33;;;;;;;-3.29;79.77;97494.16;5037334;28;20034;-65
2021/12/09 01:49:04;;;;;;;44.13;18.48;;;;;;;-3.25;79.91;97494.47;5037323;28;20032;-65
2021/12/09 01:51:30;;;;;;;43.47;18.20;;;;;;;-3.17;79.70;97496.03;5035777;28;20032;-65
2021/12/09 01:53:55;;;;;;;44.28;18.73;;;;;;;-3.14;79.57;97491.00;5038083;28;20033;-65
2021/12/09 01:56:24;;;;;;;44.45;19.58;;;;;;;-3.11;79.83;97487.06;5034799;28;20098;-66
2021/12/09 01:59:04;;;;;;;39.97;17.25;;;;;;;-3.11;79.42;97494.28;5043517;28;20029;-65
2021/12/09 02:01:31;;;;;;;41.50;16.67;;;;;;;-3.12;79.56;97480.06;5038473;28;20064;-65
2021/12/09 02:03:57;;;;;;;40.33;17.42;;;;;;;-3.14;79.51;97491.00;5038056;28;20022;-65
2021/12/09 02:06:24;;;;;;;41.70;18.85;;;;;;;-3.13;79.35;97497.22;5043035;28;20028;-65
2021/12/09 02:08:49;;;;;;;43.05;18.25;;;;;;;-3.12;79.09;97495.34;5038115;28;20474;-64
2021/12/09 02:11:16;;;;;;;41.92;17.15;;;;;;;-3.12;79.30;97496.16;5035971;28;20040;-65
2021/12/09 02:13:43;;;;;;;42.70;17.60;;;;;;;-3.08;79.32;97507.22;5036543;28;20510;-66
2021/12/09 02:16:09;;;;;;;41.60;17.02;;;;;;;-3.04;79.51;97503.84;5036555;28;21554;-65
2021/12/09 02:18:35;;;;;;;41.22;17.17;;;;;;;-3.01;79.10;97508.75;5037280;28;20053;-66
2021/12/09 02:21:15;;;;;;;40.40;17.00;;;;;;;-2.95;79.61;97503.50;5036137;28;20021;-66
2021/12/09 02:23:46;;;;;;;35.25;14.70;;;;;;;-2.92;79.15;97508.41;5039055;28;20474;-66
2021/12/09 02:26:13;;;;;;;42.22;17.02;;;;;;;-2.93;79.30;97510.28;5039718;28;20034;-65
2021/12/09 02:28:40;;;;;;;44.15;18.80;;;;;;;-2.89;79.21;97502.59;5040062;28;20036;-65
2021/12/09 02:31:05;;;;;;;38.72;15.27;;;;;;;-2.90;79.20;97498.25;5039835;28;20025;-66
2021/12/09 02:33:32;;;;;;;41.80;17.45;;;;;;;-2.94;78.78;97500.59;5040121;28;20052;-66
2021/12/09 02:35:58;;;;;;;40.60;16.63;;;;;;;-2.96;78.98;97499.19;5039551;28;20021;-65
2021/12/09 02:38:24;;;;;;;39.03;16.48;;;;;;;-2.97;79.06;97497.56;5040288;28;20041;-65
2021/12/09 02:40:50;;;;;;;39.58;17.08;;;;;;;-2.98;79.12;97502.13;5041218;28;20500;-65
2021/12/09 02:43:16;;;;;;;41.10;17.60;;;;;;;-2.94;79.09;97495.25;5041172;28;20021;-66
2021/12/09 02:45:48;;;;;;;44.38;18.50;;;;;;;-2.92;78.80;97495.00;5042514;28;20018;-66
2021/12/09 02:48:17;;;;;;;39.97;16.85;;;;;;;-2.90;79.26;97493.72;5045211;28;20449;-66
2021/12/09 02:50:42;;;;;;;37.22;16.33;;;;;;;-2.88;78.96;97504.22;5042471;28;20347;-67
2021/12/09 02:53:08;;;;;;;42.55;18.38;;;;;;;-2.90;78.79;97500.94;5040984;28;20024;-66
2021/12/09 02:55:33;;;;;;;41.38;17.83;;;;;;;-2.90;78.76;97507.16;5046921;28;20032;-65
2021/12/09 02:58:02;;;;;;;44.72;17.95;;;;;;;-2.83;79.09;97512.41;5048415;28;20025;-66
2021/12/09 03:00:29;;;;;;;39.27;17.83;;;;;;;-2.80;78.79;97514.63;5047177;28;20021;-65
2021/12/09 03:02:56;;;;;;;33.20;15.35;;;;;;;-2.80;78.72;97517.28;5048432;28;20271;-65
2021/12/09 03:05:22;;;;;;;31.40;12.45;;;;;;;-2.78;78.64;97509.81;5048243;28;20017;-66
2021/12/09 03:07:48;;;;;;;36.88;14.48;;;;;;;-2.78;78.64;97509.00;5047997;28;20014;-66
2021/12/09 03:10:20;;;;;;;38.53;15.85;;;;;;;-2.78;78.57;97506.31;5049121;28;20025;-65
2021/12/09 03:12:48;;;;;;;37.30;16.63;;;;;;;-2.80;78.55;97509.25;5048125;28;20029;-66
2021/12/09 03:15:16;;;;;;;42.80;16.02;;;;;;;-2.82;78.59;97505.97;5049084;28;20021;-66
2021/12/09 03:17:42;;;;;;;44.15;17.05;;;;;;;-2.82;78.43;97503.28;5047969;28;20032;-66
2021/12/09 03:20:10;;;;;;;35.63;14.93;;;;;;;-2.82;78.79;97497.09;5048879;28;20025;-66
2021/12/09 03:22:37;;;;;;;40.70;17.00;;;;;;;-2.83;78.49;97490.94;5047131;28;20062;-66
2021/12/09 03:25:06;;;;;;;43.03;18.83;;;;;;;-2.84;78.37;97494.66;5048689;28;20556;-66
2021/12/09 03:27:32;;;;;;;46.23;18.60;;;;;;;-2.82;78.58;97497.09;5045077;28;20041;-66
2021/12/09 03:29:57;;;;;;;37.55;15.63;;;;;;;-2.81;78.51;97498.72;5048687;28;20041;-66
2021/12/09 03:32:23;;;;;;;39.75;15.85;;;;;;;-2.81;78.37;97504.94;5047510;28;20033;-65
2021/12/09 03:34:49;;;;;;;39.22;17.95;;;;;;;-2.80;78.43;97509.25;5048287;28;20060;-66
2021/12/09 03:37:22;;;;;;;37.88;15.95;;;;;;;-2.77;78.67;97506.09;5047311;28;20025;-65
2021/12/09 03:39:50;;;;;;;40.65;16.15;;;;;;;-2.78;78.37;97496.41;5037905;28;20033;-66
2021/12/09 03:42:18;;;;;;;34.15;15.50;;;;;;;-2.82;78.14;97511.34;5036424;28;20095;-66
2021/12/09 03:44:45;;;;;;;41.22;16.40;;;;;;;-2.85;78.45;97501.06;5035310;28;20040;-66
2021/12/09 03:47:14;;;;;;;38.70;17.70;;;;;;;-2.85;78.23;97498.38;5036090;28;20059;-66
2021/12/09 03:49:42;;;;;;;35.03;17.02;;;;;;;-2.86;78.40;97502.97;5036369;28;20029;-66
2021/12/09 03:52:08;;;;;;;39.83;15.77;;;;;;;-2.85;78.62;97499.19;5034927;28;20017;-66
2021/12/09 03:54:33;;;;;;;38.15;16.63;;;;;;;-2.85;78.31;97506.44;5037563;28;20086;-66
2021/12/09 03:56:58;;;;;;;38.22;16.15;;;;;;;-2.84;78.46;97513.44;5034822;28;20040;-66
2021/12/09 03:59:24;;;;;;;37.65;17.40;;;;;;;-2.85;78.39;97507.25;5036027;28;20034;-65
2021/12/09 04:01:50;;;;;;;35.95;15.98;;;;;;;-2.81;78.44;97509.47;5036356;28;20021;-66
2021/12/09 04:04:16;;;;;;;39.67;16.67;;;;;;;-2.76;78.37;97498.84;5037178;28;20025;-65
2021/12/09 04:06:42;;;;;;;38.35;16.65;;;;;;;-2.74;78.64;97496.75;5038258;28;20029;-65
2021/12/09 04:09:10;;;;;;;41.47;17.67;;;;;;;-2.76;78.43;97493.47;5035394;28;20033;-66
2021/12/09 04:11:36;;;;;;;41.03;17.70;;;;;;;-2.76;78.39;97488.13;5037958;28;20039;-66
2021/12/09 04:14:03;;;;;;;38.75;16.88;;;;;;;-2.72;78.45;97500.84;5036933;28;20470;-66
2021/12/09 04:16:29;;;;;;;38.30;17.23;;;;;;;-2.63;78.91;97511.22;5038499;28;20465;-65
2021/12/09 04:18:55;;;;;;;40.35;18.25;;;;;;;-2.57;78.29;97496.84;5037463;28;20056;-66
2021/12/09 04:21:21;;;;;;;39.40;16.92;;;;;;;-2.54;78.59;97507.13;5035167;28;20037;-66
2021/12/09 04:23:46;;;;;;;38.22;16.00;;;;;;;-2.53;78.13;97505.28;5034607;28;20029;-65
2021/12/09 04:26:12;;;;;;;42.60;17.38;;;;;;;-2.53;78.07;97498.03;5036185;28;20055;-66
2021/12/09 04:28:38;;;;;;;36.35;16.13;;;;;;;-2.55;78.31;97494.75;5035264;28;20029;-66
2021/12/09 04:31:05;;;;;;;42.67;18.08;;;;;;;-2.57;78.29;97499.53;5036371;28;20068;-66
2021/12/09 04:33:31;;;;;;;41.92;17.70;;;;;;;-2.56;78.07;97498.50;5034936;28;20046;-66
2021/12/09 04:35:57;;;;;;;44.38;18.27;;;;;;;-2.59;78.18;97486.38;5036231;28;20021;-66
2021/12/09 04:38:23;;;;;;;39.97;18.33;;;;;;;-2.61;77.93;97487.63;5035042;28;20029;-66
2021/12/09 04:40:48;;;;;;;39.80;16.60;;;;;;;-2.63;77.97;97485.19;5036053;28;20056;-65
2021/12/09 04:43:14;;;;;;;40.33;18.23;;;;;;;-2.63;78.30;97490.56;5035855;28;20072;-65
2021/12/09 04:45:40;;;;;;;37.83;17.23;;;;;;;-2.59;78.12;97496.28;5036362;28;20488;-65
2021/12/09 04:48:07;;;;;;;41.17;18.63;;;;;;;-2.57;77.97;97494.16;5036751;28;20022;-65
2021/12/09 04:50:34;;;;;;;38.00;15.95;;;;;;;-2.53;77.90;97494.53;5039157;28;20176;-66
2021/12/09 04:53:00;;;;;;;42.40;17.80;;;;;;;-2.57;77.71;97483.44;5037764;28;20020;-65
2021/12/09 04:55:26;;;;;;;46.20;19.17;;;;;;;-2.58;77.91;97471.06;5038034;28;20128;-65
2021/12/09 04:57:51;;;;;;;42.72;18.25;;;;;;;-2.58;77.79;97484.47;5038785;28;20021;-65
2021/12/09 05:00:22;;;;;;;36.97;15.98;;;;;;;-2.55;78.07;97492.91;5038662;28;20430;-66
2021/12/09 05:05:13;;;;;;;39.00;17.35;;;;;;;-2.48;77.87;97505.38;5041748;28;20037;-66
2021/12/09 05:07:38;;;;;;;34.78;14.48;;;;;;;-2.42;77.99;97501.75;5043645;28;20018;-66
2021/12/09 05:10:05;;;;;;;43.65;19.02;;;;;;;-2.37;77.97;97495.69;5046645;28;20051;-66
2021/12/09 05:12:30;;;;;;;40.95;18.40;;;;;;;-2.35;78.09;97498.94;5045270;28;20021;-66
2021/12/09 05:14:56;;;;;;;48.88;21.05;;;;;;;-2.33;78.29;97505.69;5046549;28;20025;-66
2021/12/09 05:17:22;;;;;;;43.83;19.30;;;;;;;-2.29;77.82;97504.19;5046831;28;20074;-66
2021/12/09 05:19:48;;;;;;;43.88;18.70;;;;;;;-2.25;78.02;97493.78;5046298;28;20040;-65
2021/12/09 05:22:14;;;;;;;42.88;17.27;;;;;;;-2.26;77.94;97490.28;5044451;28;20088;-65
2021/12/09 05:24:40;;;;;;;44.95;20.20;;;;;;;-2.30;77.63;97474.88;5044658;28;20036;-65
2021/12/09 05:27:07;;;;;;;41.47;17.63;;;;;;;-2.33;77.56;97481.53;5046886;28;20025;-66
2021/12/09 05:29:40;;;;;;;45.10;19.55;;;;;;;-2.31;77.42;97490.16;5045344;28;20032;-65
2021/12/09 05:32:13;;;;;;;45.85;20.05;;;;;;;-2.29;78.18;97490.75;5048774;28;20446;-64
2021/12/09 05:34:45;;;;;;;41.88;19.17;;;;;;;-2.27;77.91;97493.22;5046545;28;20110;-64
2021/12/09 05:37:14;;;;;;;39.97;18.13;;;;;;;-2.25;77.54;97497.28;5049037;28;20071;-66
2021/12/09 05:39:40;;;;;;;46.28;20.35;;;;;;;-2.21;77.82;97521.00;5049315;28;20029;-65
2021/12/09 05:42:07;;;;;;;47.33;20.20;;;;;;;-2.15;77.81;97520.84;5038221;28;20032;-65
2021/12/09 05:44:33;;;;;;;44.08;19.42;;;;;;;-2.14;77.87;97517.09;5033305;28;20029;-66
2021/12/09 05:47:02;;;;;;;42.05;18.90;;;;;;;-2.16;77.65;97524.59;5033532;28;20470;-66
2021/12/09 05:49:27;;;;;;;43.58;18.13;;;;;;;-2.12;77.71;97519.56;5033611;28;20021;-66
2021/12/09 05:51:53;;;;;;;45.85;19.65;;;;;;;-2.13;77.54;97516.06;5045664;28;20368;-66
2021/12/09 05:54:18;;;;;;;42.58;18.20;;;;;;;-2.17;77.22;97503.34;5053240;28;20037;-66
2021/12/09 05:56:44;;;;;;;51.22;20.70;;;;;;;-2.18;77.53;97520.53;5053459;28;20036;-66
2021/12/09 05:59:10;;;;;;;43.75;19.95;;;;;;;-2.15;77.66;97525.41;5053406;28;20095;-66
2021/12/09 06:01:38;;;;;;;43.83;19.88;;;;;;;-2.08;77.60;97527.97;5053078;28;20036;-66
2021/12/09 06:04:05;;;;;;;42.13;19.65;;;;;;;-2.07;77.56;97548.41;5052916;28;20029;-66
2021/12/09 06:06:30;;;;;;;51.33;23.27;;;;;;;-2.02;77.59;97551.19;5043315;28;20025;-65
2021/12/09 06:08:56;;;;;;;41.58;19.08;;;;;;;-1.95;77.53;97546.53;5033004;28;20761;-66
2021/12/09 06:11:22;;;;;;;41.83;19.13;;;;;;;-1.95;77.41;97541.94;5033084;28;20236;-65
2021/12/09 06:13:48;;;;;;;45.25;19.10;;;;;;;-1.94;77.11;97537.41;5032989;28;20033;-66
2021/12/09 06:16:15;;;;;;;43.97;18.98;;;;;;;-1.96;77.27;97539.50;5033056;28;20030;-66
2021/12/09 06:18:40;;;;;;;39.67;15.75;;;;;;;-1.95;77.35;97543.84;5032754;28;20041;-66
2021/12/09 06:21:06;;;;;;;52.08;20.20;;;;;;;-2.04;76.84;97537.19;5032502;28;20036;-65
2021/12/09 06:23:31;;;;;;;41.85;16.38;;;;;;;-2.14;76.98;97545.84;5032795;28;20064;-66
2021/12/09 06:25:57;;;;;;;49.70;20.63;;;;;;;-2.17;77.10;97549.81;5031628;28;20044;-66
2021/12/09 06:28:23;;;;;;;40.85;18.83;;;;;;;-2.08;77.26;97546.78;5032942;28;20116;-66
2021/12/09 06:30:49;;;;;;;43.83;19.23;;;;;;;-2.06;77.45;97555.41;5031599;28;20029;-66
2021/12/09 06:33:14;;;;;;;49.15;19.70;;;;;;;-2.10;77.14;97572.00;5032254;28;20048;-66
2021/12/09 06:35:40;;;;;;;53.95;21.92;;;;;;;-2.02;77.43;97583.44;5032802;28;20046;-66
2021/12/09 06:38:12;;;;;;;44.92;18.83;;;;;;;-1.94;77.72;97569.66;5032610;28;20451;-66
2021/12/09 06:40:38;;;;;;;44.42;19.75;;;;;;;-1.93;77.00;97557.00;5051137;28;20056;-66
2021/12/09 06:43:04;;;;;;;48.35;21.30;;;;;;;-1.86;77.44;97565.78;5052158;28;20485;-66
2021/12/09 06:45:30;;;;;;;49.30;20.70;;;;;;;-1.76;77.34;97562.47;5052211;28;20086;-66
2021/12/09 06:47:56;;;;;;;50.83;22.30;;;;;;;-1.78;77.09;97561.88;5052321;28;20483;-67
2021/12/09 06:50:23;;;;;;;50.33;21.70;;;;;;;-1.85;76.96;97562.03;5052240;28;20029;-66
2021/12/09 06:52:49;;;;;;;47.33;19.38;;;;;;;-1.93;76.83;97559.69;5051539;28;20025;-66
2021/12/09 06:55:16;;;;;;;51.28;22.00;;;;;;;-1.98;76.78;97568.50;5052143;28;20032;-66
2021/12/09 06:57:43;;;;;;;53.85;21.85;;;;;;;-1.99;77.15;97570.34;5036719;28;20091;-66
2021/12/09 07:00:13;;;;;;;51.80;21.52;;;;;;;-1.96;76.94;97571.75;5032253;28;20086;-66
2021/12/09 07:02:38;;;;;;;53.42;22.70;;;;;;;-1.87;77.35;97588.31;5031771;28;20018;-67
2021/12/09 07:05:07;;;;;;;51.42;21.67;;;;;;;-1.77;77.35;97576.97;5030925;28;20385;-66
2021/12/09 07:07:32;;;;;;;45.78;19.33;;;;;;;-1.78;77.13;97578.00;5050665;28;20082;-66
2021/12/09 07:09:58;;;;;;;41.88;17.25;;;;;;;-1.79;77.06;97571.84;5052166;28;20020;-66
2021/12/09 07:12:23;;;;;;;49.22;21.05;;;;;;;-1.82;76.90;97565.03;5051356;28;20060;-66
2021/12/09 07:14:49;;;;;;;50.42;21.92;;;;;;;-1.85;77.33;97562.03;5051965;28;20036;-66
2021/12/09 07:17:16;;;;;;;52.63;22.38;;;;;;;-1.85;76.64;97564.72;5052175;28;20025;-66
2021/12/09 07:19:41;;;;;;;54.78;22.85;;;;;;;-1.81;77.12;97571.25;5051814;28;20040;-66
2021/12/09 07:22:08;;;;;;;52.10;21.13;;;;;;;-1.75;76.89;97573.00;5051542;28;20378;-66
2021/12/09 07:24:35;;;;;;;57.25;23.67;;;;;;;-1.77;76.69;97560.81;5051683;28;20504;-66
2021/12/09 07:27:01;;;;;;;61.70;26.98;;;;;;;-1.86;76.23;97566.59;5051409;28;20032;-66
2021/12/09 07:29:27;;;;;;;52.40;23.23;;;;;;;-1.82;76.67;97581.16;5051771;28;20485;-67
2021/12/09 07:31:53;;;;;;;54.97;24.02;;;;;;;-1.74;76.91;97574.63;5050928;28;20496;-66
2021/12/09 07:34:19;;;;;;;59.85;28.67;;;;;;;-1.70;76.52;97569.56;5050825;28;20041;-66
2021/12/09 07:36:44;;;;;;;71.85;32.17;;;;;;;-1.80;76.44;97565.63;5048211;28;20688;-66
2021/12/09 07:39:10;;;;;;;57.10;25.92;;;;;;;-1.85;76.50;97579.00;5044599;28;20037;-66
2021/12/09 07:41:36;;;;;;;54.30;23.77;;;;;;;-1.84;76.54;97583.31;5046656;28;20048;-66
2021/12/09 07:44:05;;;;;;;54.58;25.00;;;;;;;-1.78;76.92;97596.81;5040656;28;20581;-66
2021/12/09 07:46:31;;;;;;;52.45;24.55;;;;;;;-1.67;77.04;97599.50;5034010;28;20378;-66
2021/12/09 07:48:56;;;;;;;49.83;22.13;;;;;;;-1.61;76.99;97592.34;5047253;28;20036;-66
2021/12/09 07:51:22;;;;;;;54.55;23.35;;;;;;;-1.54;77.14;97592.19;5043958;28;20033;-66
2021/12/09 07:53:47;;;;;;;52.22;21.38;;;;;;;-1.44;76.77;97594.28;5036570;28;20103;-66
2021/12/09 07:56:13;;;;;;;62.47;25.23;;;;;;;-1.43;76.58;97604.81;5039578;28;20068;-65
2021/12/09 07:58:38;;;;;;;57.67;26.83;;;;;;;-1.38;76.81;97609.44;5036033;28;20644;-67
2021/12/09 08:01:04;;;;;;;59.40;25.27;;;;;;;-1.33;76.94;97593.41;5040720;28;20041;-66
2021/12/09 08:03:30;;;;;;;80.47;32.60;;;;;;;-1.36;76.37;97597.41;5035924;28;20476;-67
2021/12/09 08:05:56;;;;;;;67.53;28.40;;;;;;;-1.33;76.68;97590.72;5029245;28;20456;-66
2021/12/09 08:08:21;;;;;;;69.53;29.98;;;;;;;-1.23;76.43;97600.88;5040639;28;20037;-67
2021/12/09 08:10:47;;;;;;;71.97;32.63;;;;;;;-1.19;76.59;97602.00;5041904;28;20033;-66
2021/12/09 08:13:13;;;;;;;89.15;40.42;;;;;;;-1.13;76.44;97592.16;5035621;28;20103;-66
2021/12/09 08:15:45;;;;;;;73.85;32.70;;;;;;;-1.03;76.52;97575.38;5028971;28;20041;-66
2021/12/09 08:18:43;;;;;;;65.78;26.88;;;;;;;-1.03;76.43;97570.00;5045934;28;20436;-65
2021/12/09 08:21:02;;;;;;;66.22;27.95;;;;;;;-1.11;75.82;97573.91;5048990;28;20032;-67
2021/12/09 08:23:27;;;;;;;69.05;30.02;;;;;;;-1.21;75.57;97577.22;5037026;28;20038;-67
2021/12/09 08:25:55;;;;;;;65.22;28.27;;;;;;;-1.27;75.53;97588.97;5030664;28;20036;-66
2021/12/09 08:28:21;;;;;;;88.65;43.92;;;;;;;-1.25;75.97;97587.66;5032378;28;20461;-65
2021/12/09 08:30:50;;;;;;;125.70;52.50;;;;;;;-1.17;76.15;97582.94;5047547;28;20032;-65
2021/12/09 08:33:17;;;;;;;196.90;80.47;;;;;;;-1.16;75.78;97592.66;5036238;28;20057;-66
2021/12/09 08:35:42;;;;;;;114.28;48.35;;;;;;;-1.16;76.18;97592.66;5046903;28;20025;-65
2021/12/09 08:38:08;;;;;;;111.68;53.15;;;;;;;-1.16;75.84;97596.16;5046183;28;20039;-66
2021/12/09 08:40:35;;;;;;;61.38;29.33;;;;;;;-1.20;75.79;97587.75;5039304;28;20112;-66
2021/12/09 08:43:06;;;;;;;65.93;28.35;;;;;;;-1.20;75.94;97592.28;5032302;28;20037;-67
2021/12/09 08:45:31;;;;;;;84.50;35.72;;;;;;;-1.22;75.85;97579.09;5029004;28;20029;-66
2021/12/09 08:47:57;;;;;;;85.72;41.65;;;;;;;-1.18;75.79;97565.16;5029052;28;20513;-66
2021/12/09 08:50:25;;;;;;;70.70;31.95;;;;;;;-1.13;75.85;97570.66;5037215;28;20025;-66
2021/12/09 08:52:52;;;;;;;158.07;77.95;;;;;;;-1.07;75.98;97559.72;5036817;28;20104;-66
2021/12/09 08:55:19;;;;;;;100.47;46.53;;;;;;;-1.01;75.65;97570.56;5038096;28;20032;-67
2021/12/09 08:57:46;;;;;;;121.25;58.53;;;;;;;-0.90;75.89;97572.38;5044260;28;20028;-67
2021/12/09 09:00:14;;;;;;;71.15;34.58;;;;;;;-0.76;76.05;97556.72;5046372;28;20402;-66
2021/12/09 09:02:42;;;;;;;78.78;38.30;;;;;;;-0.72;75.73;97568.63;5037108;28;20033;-67
2021/12/09 09:05:11;;;;;;;108.07;55.80;;;;;;;-0.58;76.12;97565.59;5042058;28;20033;-66
2021/12/09 09:07:38;;;;;;;124.00;64.18;;;;;;;-0.53;75.86;97569.19;5040609;28;20029;-66
2021/12/09 09:10:06;;;;;;;92.63;46.85;;;;;;;-0.47;75.97;97576.31;5049564;28;20045;-66
2021/12/09 09:12:33;;;;;;;74.70;37.97;;;;;;;-0.35;75.63;97568.13;5031868;28;20029;-66
2021/12/09 09:14:59;;;;;;;74.75;39.47;;;;;;;-0.22;76.47;97558.88;5040873;28;20477;-66
2021/12/09 09:17:24;;;;;;;93.22;47.72;;;;;;;-0.26;75.73;97559.63;5032795;28;20041;-66
2021/12/09 09:19:50;;;;;;;78.00;38.25;;;;;;;-0.28;75.77;97559.84;5035946;28;20041;-69
2021/12/09 09:22:15;;;;;;;79.18;37.50;;;;;;;-0.32;75.26;97556.84;5044179;28;20035;-64
2021/12/09 09:24:41;;;;;;;75.82;38.35;;;;;;;-0.32;75.41;97551.47;5048978;28;20375;-66
2021/12/09 09:27:07;;;;;;;76.95;35.85;;;;;;;-0.28;75.12;97553.66;5049923;28;20121;-67
2021/12/09 09:29:34;;;;;;;68.32;31.02;;;;;;;-0.21;75.67;97559.69;5045283;28;20021;-65
2021/12/09 09:32:00;;;;;;;71.07;33.50;;;;;;;-0.07;75.47;97549.38;5037285;28;20029;-65
2021/12/09 09:34:26;;;;;;;58.47;26.55;;;;;;;0.04;75.55;97540.31;5041194;28;20051;-66
2021/12/09 09:36:51;;;;;;;82.75;40.17;;;;;;;0.04;74.90;97539.53;5044471;28;20112;-67
2021/12/09 09:39:18;;;;;;;72.40;34.63;;;;;;;0.09;75.39;97534.19;5037815;28;20037;-66
2021/12/09 09:41:55;;;;;;;75.95;32.65;;;;;;;0.24;75.73;97536.25;5039287;28;20117;-65
2021/12/09 09:44:27;;;;;;;62.95;28.65;;;;;;;0.32;74.90;97543.91;5043418;28;20505;-65
2021/12/09 09:46:56;;;;;;;75.15;33.13;;;;;;;0.41;75.11;97544.28;5036184;28;20033;-65
2021/12/09 09:49:22;;;;;;;65.90;29.08;;;;;;;0.53;75.02;97539.56;5034387;28;20026;-64
2021/12/09 09:51:48;;;;;;;60.05;28.58;;;;;;;0.59;75.31;97530.47;5046065;28;20029;-65
2021/12/09 09:54:13;;;;;;;55.60;25.98;;;;;;;0.63;75.30;97532.63;5041262;28;20500;-65
2021/12/09 09:56:41;;;;;;;58.60;26.88;;;;;;;0.61;74.81;97532.88;5032413;28;20541;-65
2021/12/09 09:59:12;;;;;;;100.40;42.63;;;;;;;0.65;75.21;97541.28;5036185;28;20044;-66
2021/12/09 10:01:38;;;;;;;;;;;;;;;0.68;75.04;97540.78;5035877;28;20386;-65
2021/12/09 10:04:21;;;;;;;86.60;37.10;;;;;;;0.62;74.40;97539.09;5042848;28;20278;-65
2021/12/09 10:06:48;;;;;;;73.90;32.80;;;;;;;0.61;74.94;97537.47;5035593;28;20029;-66
2021/12/09 10:09:16;;;;;;;89.82;40.63;;;;;;;0.66;75.02;97530.25;5031944;28;20028;-66
2021/12/09 10:11:45;;;;;;;72.32;29.92;;;;;;;0.67;74.71;97518.38;5032208;28;20041;-65
2021/12/09 10:14:23;;;;;;;73.32;29.85;;;;;;;0.74;74.48;97515.47;5048671;28;20021;-64
2021/12/09 10:17:09;;;;;;;72.63;29.70;;;;;;;0.76;74.24;97510.63;5036333;28;20037;-65
2021/12/09 10:19:47;;;;;;;67.93;29.63;;;;;;;0.72;74.02;97518.44;5049816;28;20065;-65
2021/12/09 10:22:16;;;;;;;79.82;35.67;;;;;;;0.67;74.02;97512.16;5050692;28;20025;-65
2021/12/09 10:24:46;;;;;;;102.35;46.08;;;;;;;0.68;74.03;97519.19;5049514;28;20037;-63
2021/12/09 10:27:27;;;;;;;88.72;37.42;;;;;;;0.77;73.96;97512.25;5037191;28;20152;-65
2021/12/09 10:30:00;;;;;;;70.43;31.88;;;;;;;0.92;73.76;97495.38;5038700;28;20385;-64
2021/12/09 10:32:31;;;;;;;84.80;38.42;;;;;;;0.97;74.08;97484.63;5043163;28;20021;-66
2021/12/09 10:35:07;;;;;;;67.47;30.15;;;;;;;1.02;73.54;97495.47;5039415;28;20033;-65
2021/12/09 10:37:34;;;;;;;70.78;32.30;;;;;;;1.00;73.54;97480.59;5050215;28;20033;-64
2021/12/09 10:40:04;;;;;;;101.65;52.10;;;;;;;0.94;73.72;97482.44;5050479;28;20029;-64
2021/12/09 10:42:33;;;;;;;77.00;32.90;;;;;;;1.01;73.64;97484.94;5049365;28;20093;-65
2021/12/09 10:45:09;;;;;;;65.97;26.98;;;;;;;1.03;73.27;97486.28;5033704;28;20116;-64
2021/12/09 10:50:41;;;;;;;87.95;40.88;;;;;;;1.04;73.07;97485.22;5044673;28;20029;-66
2021/12/09 10:53:48;;;;;;;78.43;36.25;;;;;;;1.13;73.12;97476.66;5043219;28;20060;-66
2021/12/09 10:56:25;;;;;;;72.18;31.75;;;;;;;1.17;73.34;97470.47;5044372;28;20030;-67
2021/12/09 10:58:51;;;;;;;59.28;25.67;;;;;;;1.13;72.86;97474.75;5048726;28;20029;-68
2021/12/09 11:01:19;;;;;;;59.80;25.38;;;;;;;1.03;72.37;97472.78;5034869;28;20075;-65
2021/12/09 11:03:50;;;;;;;63.22;26.25;;;;;;;0.98;73.28;97475.44;5040299;28;20033;-66
2021/12/09 11:06:42;;;;;;;77.53;35.58;;;;;;;0.94;73.20;97484.34;5043776;28;20388;-65
2021/12/09 11:09:09;;;;;;;66.68;30.25;;;;;;;0.88;72.68;97491.56;5040255;28;20507;-64
2021/12/09 11:11:36;;;;;;;56.42;25.98;;;;;;;0.84;72.96;97480.47;5037538;28;20060;-64
2021/12/09 11:14:08;;;;;;;46.95;21.10;;;;;;;0.85;72.84;97479.41;5035060;28;20083;-63
2021/12/09 11:16:38;;;;;;;53.83;24.00;;;;;;;0.92;72.70;97481.06;5047267;28;20033;-64
2021/12/09 11:22:00;;;;;;;53.38;24.05;;;;;;;0.93;72.98;97486.19;5035538;28;20121;-64
2021/12/09 11:24:31;;;;;;;58.55;26.30;;;;;;;0.99;72.94;97484.38;5046133;28;20020;-63
2021/12/09 11:27:03;;;;;;;54.38;24.23;;;;;;;1.04;73.58;97487.09;5043750;28;20231;-64
2021/12/09 11:29:31;;;;;;;53.58;23.50;;;;;;;1.07;72.74;97483.06;5039376;28;20075;-65